createdAt,value
2017-05-26T00:01:53.207Z,18.30
2017-05-26T00:04:19.495Z,18.20
2017-05-26T00:06:47.788Z,18.20
2017-05-26T00:09:13.840Z,18.20
2017-05-26T00:11:41.404Z,18.20
2017-05-26T00:14:10.253Z,18.00
2017-05-26T00:16:38.479Z,17.90
2017-05-26T00:19:07.943Z,17.90
2017-05-26T00:21:38.000Z,17.80
2017-05-26T00:24:05.724Z,17.80
2017-05-26T00:26:33.594Z,17.70
2017-05-26T00:29:00.519Z,17.70
2017-05-26T00:31:36.881Z,17.70
2017-05-26T00:34:06.805Z,17.60
2017-05-26T00:36:34.906Z,17.60
2017-05-26T00:39:03.877Z,17.60
2017-05-26T00:41:33.889Z,17.50
2017-05-26T00:44:02.065Z,17.50
2017-05-26T00:46:29.501Z,17.50
2017-05-26T00:48:55.595Z,17.50
2017-05-26T00:51:24.923Z,17.50
2017-05-26T00:53:52.495Z,17.50
2017-05-26T00:56:19.168Z,17.50
2017-05-26T00:58:45.647Z,17.40
2017-05-26T01:01:12.405Z,17.50
2017-05-26T01:03:39.876Z,17.50
2017-05-26T01:06:07.433Z,17.60
2017-05-26T01:08:34.491Z,17.60
2017-05-26T01:11:00.536Z,17.20
2017-05-26T01:13:27.526Z,17.50
2017-05-26T01:15:55.170Z,17.50
2017-05-26T01:18:22.025Z,17.40
2017-05-26T01:20:49.635Z,17.30
2017-05-26T01:23:17.007Z,17.30
2017-05-26T01:25:44.777Z,17.30
2017-05-26T01:28:10.755Z,17.20
2017-05-26T01:30:39.905Z,17.30
2017-05-26T01:33:11.694Z,17.20
2017-05-26T01:35:39.382Z,17.10
2017-05-26T01:38:06.136Z,17.10
2017-05-26T01:40:32.858Z,17.10
2017-05-26T01:43:00.422Z,17.10
2017-05-26T01:45:26.853Z,17.00
2017-05-26T01:47:54.132Z,17.10
2017-05-26T01:50:20.903Z,17.10
2017-05-26T01:52:47.952Z,17.00
2017-05-26T01:55:16.160Z,17.00
2017-05-26T01:57:44.035Z,16.90
2017-05-26T02:00:10.089Z,16.90
2017-05-26T02:02:36.829Z,16.80
2017-05-26T02:05:04.458Z,16.80
2017-05-26T02:07:31.454Z,16.70
2017-05-26T02:09:58.796Z,16.70
2017-05-26T02:12:26.597Z,16.70
2017-05-26T02:14:54.106Z,16.70
2017-05-26T02:17:20.872Z,16.70
2017-05-26T02:19:49.497Z,16.60
2017-05-26T02:22:16.291Z,16.60
2017-05-26T02:24:47.453Z,16.60
2017-05-26T02:27:13.863Z,16.60
2017-05-26T02:29:40.609Z,16.60
2017-05-26T02:32:09.624Z,16.60
2017-05-26T02:34:38.259Z,16.60
2017-05-26T02:37:04.239Z,16.50
2017-05-26T02:39:31.089Z,16.60
2017-05-26T02:41:58.060Z,16.60
2017-05-26T02:44:25.301Z,16.60
2017-05-26T02:46:52.977Z,16.60
2017-05-26T02:49:22.836Z,16.50
2017-05-26T02:51:50.355Z,16.50
2017-05-26T02:54:17.114Z,16.50
2017-05-26T02:56:43.098Z,16.40
2017-05-26T02:59:09.178Z,16.50
2017-05-26T03:01:35.950Z,16.40
2017-05-26T03:04:02.664Z,16.40
2017-05-26T03:06:29.744Z,16.40
2017-05-26T03:08:56.443Z,16.30
2017-05-26T03:11:24.572Z,16.30
2017-05-26T03:13:51.291Z,16.30
2017-05-26T03:16:19.717Z,16.30
2017-05-26T03:18:46.682Z,16.20
2017-05-26T03:21:13.322Z,16.20
2017-05-26T03:23:40.061Z,16.20
2017-05-26T03:26:06.759Z,16.20
2017-05-26T03:28:34.283Z,16.30
2017-05-26T03:31:01.000Z,16.20
2017-05-26T03:33:27.721Z,16.20
2017-05-26T03:35:54.480Z,16.20
2017-05-26T03:38:21.286Z,16.20
2017-05-26T03:40:48.316Z,16.10
2017-05-26T03:43:15.238Z,16.10
2017-05-26T03:45:41.257Z,16.00
2017-05-26T03:48:08.168Z,16.10
2017-05-26T03:50:34.954Z,16.10
2017-05-26T03:53:01.022Z,16.00
2017-05-26T03:55:27.732Z,16.00
2017-05-26T03:57:56.537Z,16.10
2017-05-26T04:00:24.127Z,16.10
2017-05-26T04:02:53.738Z,16.10
2017-05-26T04:05:22.016Z,16.10
2017-05-26T04:07:48.741Z,16.10
2017-05-26T04:10:15.699Z,16.00
2017-05-26T04:12:42.450Z,16.10
2017-05-26T04:15:09.471Z,16.00
2017-05-26T04:17:36.350Z,16.10
2017-05-26T04:20:03.629Z,16.10
2017-05-26T04:22:29.679Z,16.00
2017-05-26T04:24:57.360Z,16.10
2017-05-26T04:27:24.036Z,16.10
2017-05-26T04:29:50.819Z,16.10
2017-05-26T04:32:17.825Z,16.00
2017-05-26T04:34:44.551Z,16.00
2017-05-26T04:37:10.692Z,16.00
2017-05-26T04:39:37.380Z,16.00
2017-05-26T04:42:05.398Z,16.00
2017-05-26T04:44:32.101Z,16.10
2017-05-26T04:46:58.100Z,16.00
2017-05-26T04:49:24.812Z,16.20
2017-05-26T04:51:50.775Z,16.10
2017-05-26T04:54:17.549Z,16.30
2017-05-26T04:56:43.567Z,16.20
2017-05-26T04:59:11.271Z,16.30
2017-05-26T05:01:38.589Z,16.30
2017-05-26T05:04:05.874Z,16.40
2017-05-26T05:06:32.451Z,16.40
2017-05-26T05:08:59.213Z,16.50
2017-05-26T05:11:25.233Z,16.20
2017-05-26T05:13:51.978Z,16.60
2017-05-26T05:16:18.885Z,16.70
2017-05-26T05:18:45.625Z,16.70
2017-05-26T05:21:12.412Z,16.70
2017-05-26T05:23:39.363Z,16.70
2017-05-26T05:26:06.293Z,16.70
2017-05-26T05:28:33.051Z,16.80
2017-05-26T05:30:59.767Z,16.80
2017-05-26T05:33:26.567Z,16.80
2017-05-26T05:35:56.868Z,16.90
2017-05-26T05:38:22.985Z,16.80
2017-05-26T05:40:49.694Z,16.90
2017-05-26T05:43:19.309Z,17.00
2017-05-26T05:45:46.980Z,17.00
2017-05-26T05:48:16.178Z,17.10
2017-05-26T05:50:42.909Z,17.10
2017-05-26T05:53:09.674Z,17.10
2017-05-26T05:55:37.552Z,17.10
2017-05-26T05:58:04.787Z,17.30
2017-05-26T06:00:31.476Z,17.30
2017-05-26T06:02:59.124Z,17.40
2017-05-26T06:05:25.907Z,17.50
2017-05-26T06:07:52.769Z,17.50
2017-05-26T06:10:19.521Z,17.60
2017-05-26T06:12:46.268Z,17.70
2017-05-26T06:15:17.261Z,17.80
2017-05-26T06:17:43.955Z,17.90
2017-05-26T06:20:09.993Z,17.80
2017-05-26T06:22:36.684Z,18.00
2017-05-26T06:25:03.364Z,18.10
2017-05-26T06:27:30.054Z,18.10
2017-05-26T06:29:57.181Z,18.00
2017-05-26T06:32:24.738Z,18.10
2017-05-26T06:34:54.169Z,18.10
2017-05-26T06:37:21.090Z,18.10
2017-05-26T06:39:47.874Z,18.20
2017-05-26T06:42:13.816Z,18.20
2017-05-26T06:44:41.549Z,18.30
2017-05-26T06:47:08.280Z,18.30
2017-05-26T06:49:35.792Z,18.30
2017-05-26T06:52:03.715Z,18.30
2017-05-26T06:54:29.754Z,18.20
2017-05-26T06:56:55.752Z,18.40
2017-05-26T06:59:22.552Z,18.50
2017-05-26T07:01:48.538Z,18.50
2017-05-26T07:04:14.544Z,18.60
2017-05-26T07:06:42.109Z,18.70
2017-05-26T07:09:08.829Z,18.80
2017-05-26T07:11:35.547Z,18.80
2017-05-26T07:14:03.276Z,18.80
2017-05-26T07:16:30.051Z,18.80
2017-05-26T07:18:57.761Z,18.80
2017-05-26T07:21:27.658Z,18.90
2017-05-26T07:23:56.691Z,18.90
2017-05-26T07:26:25.248Z,19.00
2017-05-26T07:28:57.694Z,19.20
2017-05-26T07:31:26.698Z,19.20
2017-05-26T07:34:03.739Z,19.30
2017-05-26T07:36:30.374Z,19.20
2017-05-26T07:38:59.821Z,19.50
2017-05-26T07:41:28.884Z,19.50
2017-05-26T07:43:56.864Z,19.60
2017-05-26T07:46:24.740Z,19.50
2017-05-26T07:48:51.366Z,19.80
2017-05-26T07:51:20.154Z,19.80
2017-05-26T07:53:47.399Z,19.80
2017-05-26T07:58:47.533Z,20.00
2017-05-26T08:01:15.752Z,20.10
2017-05-26T08:03:48.387Z,20.20
2017-05-26T08:06:17.494Z,20.20
2017-05-26T08:08:43.635Z,20.20
2017-05-26T08:13:42.484Z,20.30
2017-05-26T08:16:11.808Z,20.40
2017-05-26T08:18:41.797Z,20.40
2017-05-26T08:21:09.541Z,20.30
2017-05-26T08:23:49.319Z,20.50
2017-05-26T08:26:17.117Z,20.50
2017-05-26T08:28:45.664Z,20.60
2017-05-26T08:31:13.576Z,20.70
2017-05-26T08:33:42.942Z,20.60
2017-05-26T08:36:13.206Z,20.80
2017-05-26T08:38:41.778Z,20.80
2017-05-26T08:41:08.710Z,20.80
2017-05-26T08:43:35.623Z,20.90
2017-05-26T08:46:08.336Z,21.00
2017-05-26T08:48:36.440Z,21.00
2017-05-26T08:51:03.633Z,21.10
2017-05-26T08:53:30.744Z,21.20
2017-05-26T08:55:57.655Z,21.30
2017-05-26T08:58:26.222Z,21.50
2017-05-26T09:03:28.253Z,21.40
2017-05-26T09:05:56.045Z,21.60
2017-05-26T09:16:22.897Z,22.10
2017-05-26T09:18:53.450Z,22.10
2017-05-26T09:24:27.453Z,22.50
2017-05-26T09:29:31.961Z,22.60
2017-05-26T09:32:13.288Z,22.60
2017-05-26T09:34:42.203Z,22.70
2017-05-26T09:37:11.378Z,22.60
2017-05-26T09:39:40.035Z,22.70
2017-05-26T09:42:10.137Z,22.80
2017-05-26T09:44:39.233Z,22.80
2017-05-26T09:47:08.574Z,22.80
2017-05-26T09:49:39.735Z,22.80
2017-05-26T09:57:20.693Z,23.20
2017-05-26T09:59:47.339Z,23.20
2017-05-26T10:02:18.230Z,23.40
2017-05-26T10:07:19.122Z,23.50
2017-05-26T10:09:47.717Z,23.40
2017-05-26T10:12:15.774Z,23.60
2017-05-26T10:17:22.694Z,23.60
2017-05-26T10:19:49.595Z,23.70
2017-05-26T10:22:17.862Z,23.70
2017-05-26T10:24:47.823Z,23.80
2017-05-26T10:27:15.214Z,23.90
2017-05-26T10:29:42.224Z,23.80
2017-05-26T10:32:08.711Z,24.00
2017-05-26T10:34:34.881Z,24.00
2017-05-26T10:37:01.705Z,24.00
2017-05-26T10:39:32.785Z,24.00
2017-05-26T10:42:02.275Z,24.00
2017-05-26T10:47:03.810Z,23.90
2017-05-26T10:49:31.547Z,24.00
2017-05-26T10:54:34.444Z,24.10
2017-05-26T10:57:03.782Z,24.00
2017-05-26T10:59:30.933Z,24.30
2017-05-26T11:02:00.488Z,24.40
2017-05-26T11:04:30.647Z,24.30
2017-05-26T11:06:59.088Z,24.50
2017-05-26T11:09:28.429Z,24.40
2017-05-26T11:11:54.939Z,24.50
2017-05-26T11:14:22.669Z,24.50
2017-05-26T11:16:48.756Z,24.50
2017-05-26T11:19:14.806Z,24.70
2017-05-26T11:29:52.647Z,25.20
2017-05-26T11:32:22.648Z,26.60
2017-05-26T11:37:31.070Z,28.50
2017-05-26T11:39:57.895Z,29.40
2017-05-26T11:42:24.565Z,29.30
2017-05-26T11:44:52.499Z,31.00
2017-05-26T11:47:23.027Z,31.90
2017-05-26T11:50:03.885Z,32.70
2017-05-26T12:01:26.299Z,33.10
2017-05-26T12:06:50.928Z,33.60
2017-05-26T12:09:18.102Z,34.20
2017-05-26T12:11:44.865Z,34.80
2017-05-26T12:14:11.609Z,34.90
2017-05-26T12:16:39.064Z,35.30
2017-05-26T12:19:05.779Z,35.20
2017-05-26T12:21:32.537Z,35.30
2017-05-26T12:23:59.210Z,35.20
2017-05-26T12:26:26.008Z,35.00
2017-05-26T12:28:52.749Z,35.40
2017-05-26T12:31:21.614Z,35.80
2017-05-26T12:33:48.305Z,36.00
2017-05-26T12:36:15.180Z,36.40
2017-05-26T12:38:41.856Z,36.50
2017-05-26T12:41:08.534Z,36.60
2017-05-26T12:43:35.231Z,36.30
2017-05-26T12:46:01.982Z,35.80
2017-05-26T12:48:28.707Z,36.00
2017-05-26T12:50:55.452Z,35.90
2017-05-26T12:53:22.335Z,35.90
2017-05-26T12:55:49.068Z,35.90
2017-05-26T12:58:15.756Z,35.90
2017-05-26T13:00:42.528Z,36.10
2017-05-26T13:03:09.239Z,36.20
2017-05-26T13:05:35.977Z,36.50
2017-05-26T13:10:58.212Z,36.30
2017-05-26T13:13:26.452Z,36.50
2017-05-26T13:18:46.614Z,37.10
2017-05-26T13:21:14.173Z,37.30
2017-05-26T13:23:41.985Z,37.30
2017-05-26T13:29:02.467Z,37.10
2017-05-26T13:31:31.256Z,37.00
2017-05-26T13:33:58.268Z,36.60
2017-05-26T13:36:25.129Z,36.50
2017-05-26T13:38:51.839Z,36.70
2017-05-26T13:44:20.055Z,37.30
2017-05-26T13:46:46.825Z,37.90
2017-05-26T13:49:15.880Z,38.40
2017-05-26T13:51:43.397Z,38.70
2017-05-26T13:54:12.059Z,39.00
2017-05-26T13:56:39.686Z,39.00
2017-05-26T13:59:05.721Z,39.20
2017-05-26T14:04:28.896Z,39.30
2017-05-26T14:06:55.195Z,39.20
2017-05-26T14:09:21.140Z,39.00
2017-05-26T14:11:47.097Z,39.30
2017-05-26T14:14:14.364Z,39.60
2017-05-26T14:16:40.439Z,39.60
2017-05-26T14:19:08.392Z,39.30
2017-05-26T14:21:34.368Z,39.20
2017-05-26T14:24:01.065Z,39.50
2017-05-26T14:26:27.802Z,39.50
2017-05-26T14:29:02.877Z,39.60
2017-05-26T14:48:56.791Z,38.70
2017-05-26T14:51:33.071Z,39.00
2017-05-26T15:27:06.737Z,39.00
2017-05-26T15:37:24.007Z,39.20
2017-05-26T15:45:42.978Z,39.40
2017-05-26T15:48:09.016Z,39.50
2017-05-26T15:50:35.842Z,39.40
2017-05-26T15:53:05.350Z,39.50
2017-05-26T16:05:40.931Z,39.10
2017-05-26T16:08:07.822Z,39.10
2017-05-26T16:10:34.667Z,39.20
2017-05-26T16:13:03.250Z,39.30
2017-05-26T16:15:29.454Z,39.20
2017-05-26T23:58:21.415Z,20.80
